KMWH/MWH METAR and TAF weather

Enter ICAO airport designator
Station Type Date Time Source
KMWH METAR 2021/09/24 05:52 UTC NOAA

KMWH 240552Z 01005KT 10SM CLR 12/06 A3020 RMK AO2 SLP226 T01220061 10244 20117 51007


Station Type Date Time Source
KMWH Decoded METAR 2021/09/24 05:52 UTC NOAA

GRANT COUNTY AIRPORT, WA, United States (KMWH) 47-12N 119-19W 362M
Sep 24, 2021 - 01:52 AM EDT / 2021.09.24 0552 UTC
Wind: from the N (010 degrees) at 6 MPH (5 KT):0
Visibility: 10 mile(s):0
Sky conditions: clear
Temperature: 54.0 F (12.2 C)
Dew Point: 43.0 F (6.1 C)
Relative Humidity: 66%
Pressure (altimeter): 30.2 in. Hg (1022 hPa)
Pressure tendency: 0.02 inches (0.7 hPa) higher than three hours ago
ob: KMWH 240552Z 01005KT 10SM CLR 12/06 A3020 RMK AO2 SLP226 T01220061 10244 20117 51007
cycle: 6

Station Type Date Time Source
KMWH TAF 2021/09/24 06:22 UTC NOAA

TAF KMWH 240520Z 2406/2506 VRB03KT P6SM SKC
FM242100 VRB05KT P6SM SCT200

Example: see airport list